Radersburg, Montana
Current Conditions -  °F | °C
As of 3:53 AM on Sunday 23 Nov 2014 (Local Time) from KHLN Reporting Station
Broken Clouds Broken Clouds  
Wind Chill: 27°   Ceiling: 4200
Heat Index: 33°   Visibility: 10mi
Dew Point: 24°   Wind: 7mph
Humidity: 70%   Direction: 250°WSW
Pressure: 29.85"   Gusts: NA
Location:  46.19°N, 111.63°W
Report Text: KHLN 231053Z AUTO 25006KT 10SM BKN042 01/M04 A2985 RMK AO2 WSHFT 0954 SNB02E14 SLP141 P0000 T00061044
Loading
Personal Weather Stations






























Interactive Weather Map New forecast layout! Learn more

10-Day Weather Forecast

Advertisements
Track Severe Weather on mobile